FDX734 KIAD-KJFK
Flight info
| Callsign | FDX734 |
|---|---|
| Flight time | 0h 51m |
| Altitude | 27000 |
| Route | JCOBY4 AGARD DONIL/N0408F170 T315 PANZE V44 CAMRN |
| Aircraft | B77L/H-SDE1E2E3FGHIJ2J3J4J5M1RWXY/LB1D1 |
Departure
| Time | 2026-05-09 13:05 |
|---|---|
| Airport | Washington Dulles International Airport (KIAD) |
Arrival
| Time | 2026-05-09 13:57 |
|---|---|
| Airport | John F. Kennedy International Airport (KJFK) |
| Time | Latitude | Longitude | Altitude | Speed | Heading |
|---|---|---|---|---|---|
| 2026-05-09 12:24 | 38.96392 | -77.45411 | 289 ft | 0 kts | 89° |
| 2026-05-09 12:50 | 38.96392 | -77.45423 | 288 ft | 2 kts | 89° |
| 2026-05-09 12:50 | 38.96391 | -77.45444 | 288 ft | 2 kts | 109° |
| 2026-05-09 12:50 | 38.96402 | -77.45458 | 296 ft | 2 kts | 175° |
| 2026-05-09 12:50 | 38.96409 | -77.45458 | 294 ft | 0 kts | 180° |
| 2026-05-09 12:58 | 38.96407 | -77.45458 | 287 ft | 2 kts | 180° |
| 2026-05-09 12:58 | 38.96319 | -77.45458 | 288 ft | 21 kts | 180° |
| 2026-05-09 12:58 | 38.96219 | -77.45549 | 286 ft | 19 kts | 231° |
| 2026-05-09 12:59 | 38.96095 | -77.45587 | 286 ft | 19 kts | 181° |
| 2026-05-09 12:59 | 38.95966 | -77.45585 | 293 ft | 19 kts | 182° |
| 2026-05-09 12:59 | 38.95835 | -77.45590 | 294 ft | 19 kts | 180° |
| 2026-05-09 12:59 | 38.95704 | -77.45592 | 295 ft | 19 kts | 181° |
| 2026-05-09 13:00 | 38.95573 | -77.45594 | 297 ft | 19 kts | 180° |
| 2026-05-09 13:00 | 38.95441 | -77.45595 | 300 ft | 19 kts | 180° |
| 2026-05-09 13:00 | 38.95311 | -77.45597 | 296 ft | 19 kts | 181° |
| 2026-05-09 13:00 | 38.95179 | -77.45600 | 296 ft | 19 kts | 180° |
| 2026-05-09 13:01 | 38.95048 | -77.45601 | 295 ft | 19 kts | 180° |
| 2026-05-09 13:01 | 38.94917 | -77.45604 | 295 ft | 19 kts | 181° |
| 2026-05-09 13:01 | 38.94788 | -77.45605 | 298 ft | 19 kts | 180° |
| 2026-05-09 13:01 | 38.94657 | -77.45606 | 298 ft | 19 kts | 181° |
| 2026-05-09 13:02 | 38.94525 | -77.45609 | 303 ft | 19 kts | 181° |
| 2026-05-09 13:02 | 38.94395 | -77.45611 | 305 ft | 19 kts | 180° |
| 2026-05-09 13:02 | 38.94264 | -77.45613 | 303 ft | 19 kts | 180° |
| 2026-05-09 13:02 | 38.94133 | -77.45614 | 304 ft | 19 kts | 180° |
| 2026-05-09 13:03 | 38.94001 | -77.45616 | 304 ft | 19 kts | 180° |
| 2026-05-09 13:03 | 38.93871 | -77.45617 | 304 ft | 19 kts | 180° |
| 2026-05-09 13:03 | 38.93741 | -77.45618 | 304 ft | 19 kts | 180° |
| 2026-05-09 13:03 | 38.93661 | -77.45538 | 305 ft | 15 kts | 134° |
| 2026-05-09 13:04 | 38.93572 | -77.45509 | 304 ft | 14 kts | 194° |
| 2026-05-09 13:04 | 38.93477 | -77.45550 | 300 ft | 15 kts | 201° |
| 2026-05-09 13:04 | 38.93396 | -77.45627 | 301 ft | 15 kts | 250° |
| 2026-05-09 13:04 | 38.93424 | -77.45809 | 300 ft | 33 kts | 290° |
| 2026-05-09 13:05 | 38.93578 | -77.46328 | 309 ft | 96 kts | 291° |
| 2026-05-09 13:05 | 38.93889 | -77.47383 | 317 ft | 154 kts | 291° |
| 2026-05-09 13:05 | 38.94294 | -77.48790 | 565 ft | 177 kts | 289° |
| 2026-05-09 13:05 | 38.94767 | -77.50317 | 1007 ft | 188 kts | 290° |
| 2026-05-09 13:06 | 38.95262 | -77.51843 | 1748 ft | 182 kts | 289° |
| 2026-05-09 13:06 | 38.95775 | -77.53332 | 2376 ft | 185 kts | 290° |
| 2026-05-09 13:06 | 38.96294 | -77.54843 | 3015 ft | 183 kts | 291° |
| 2026-05-09 13:06 | 38.96824 | -77.56298 | 3738 ft | 177 kts | 294° |
| 2026-05-09 13:07 | 38.97395 | -77.57679 | 4369 ft | 174 kts | 296° |
| 2026-05-09 13:07 | 38.98216 | -77.58999 | 4253 ft | 217 kts | 323° |
| 2026-05-09 13:07 | 38.99771 | -77.59667 | 4093 ft | 255 kts | 354° |
| 2026-05-09 13:07 | 39.01539 | -77.59249 | 3825 ft | 265 kts | 23° |
| 2026-05-09 13:08 | 39.02993 | -77.57780 | 3564 ft | 284 kts | 49° |
| 2026-05-09 13:08 | 39.04211 | -77.55661 | 3350 ft | 298 kts | 56° |
| 2026-05-09 13:08 | 39.05282 | -77.53405 | 3164 ft | 291 kts | 59° |
| 2026-05-09 13:08 | 39.06283 | -77.51206 | 3213 ft | 278 kts | 59° |
| 2026-05-09 13:09 | 39.07258 | -77.49073 | 3505 ft | 275 kts | 58° |
| 2026-05-09 13:09 | 39.08238 | -77.46949 | 3877 ft | 276 kts | 58° |
| 2026-05-09 13:09 | 39.09228 | -77.44821 | 4258 ft | 278 kts | 58° |
| 2026-05-09 13:09 | 39.10231 | -77.42678 | 4649 ft | 281 kts | 58° |
| 2026-05-09 13:10 | 39.11250 | -77.40513 | 5264 ft | 285 kts | 59° |
| 2026-05-09 13:10 | 39.12292 | -77.38307 | 6007 ft | 291 kts | 59° |
| 2026-05-09 13:10 | 39.13355 | -77.36054 | 6766 ft | 298 kts | 59° |
| 2026-05-09 13:10 | 39.14425 | -77.33787 | 7524 ft | 302 kts | 59° |
| 2026-05-09 13:11 | 39.15412 | -77.31397 | 8204 ft | 304 kts | 75° |
| 2026-05-09 13:11 | 39.15600 | -77.28712 | 8844 ft | 302 kts | 103° |
| 2026-05-09 13:11 | 39.15164 | -77.26072 | 9534 ft | 304 kts | 107° |
| 2026-05-09 13:11 | 39.14689 | -77.23397 | 10229 ft | 309 kts | 107° |
| 2026-05-09 13:12 | 39.14202 | -77.20613 | 10521 ft | 331 kts | 107° |
| 2026-05-09 13:12 | 39.13692 | -77.17604 | 10715 ft | 356 kts | 104° |
| 2026-05-09 13:12 | 39.13333 | -77.14367 | 11119 ft | 373 kts | 99° |
| 2026-05-09 13:12 | 39.13056 | -77.10988 | 11760 ft | 384 kts | 99° |
| 2026-05-09 13:13 | 39.12799 | -77.07581 | 12556 ft | 390 kts | 98° |
| 2026-05-09 13:13 | 39.12538 | -77.04077 | 13410 ft | 396 kts | 99° |
| 2026-05-09 13:13 | 39.12268 | -77.00514 | 14190 ft | 403 kts | 99° |
| 2026-05-09 13:13 | 39.11987 | -76.96910 | 14933 ft | 408 kts | 99° |
| 2026-05-09 13:14 | 39.11697 | -76.93240 | 15685 ft | 414 kts | 99° |
| 2026-05-09 13:14 | 39.11399 | -76.89527 | 16427 ft | 420 kts | 99° |
| 2026-05-09 13:16 | 39.09155 | -76.62285 | 21174 ft | 454 kts | 98° |
| 2026-05-09 13:16 | 39.08814 | -76.58221 | 21807 ft | 459 kts | 98° |
| 2026-05-09 13:16 | 39.08468 | -76.54106 | 22443 ft | 464 kts | 98° |
| 2026-05-09 13:16 | 39.08117 | -76.49962 | 23075 ft | 468 kts | 98° |
| 2026-05-09 13:17 | 39.07762 | -76.45780 | 23682 ft | 473 kts | 98° |
| 2026-05-09 13:17 | 39.07401 | -76.41548 | 24210 ft | 477 kts | 98° |
| 2026-05-09 13:17 | 39.07037 | -76.37284 | 24728 ft | 481 kts | 98° |
| 2026-05-09 13:17 | 39.06667 | -76.32988 | 24989 ft | 486 kts | 98° |
| 2026-05-09 13:18 | 39.06300 | -76.28728 | 24968 ft | 485 kts | 98° |
| 2026-05-09 13:18 | 39.05927 | -76.24420 | 24968 ft | 484 kts | 98° |
| 2026-05-09 13:18 | 39.05553 | -76.20122 | 24971 ft | 483 kts | 98° |
| 2026-05-09 13:18 | 39.05178 | -76.15827 | 24966 ft | 483 kts | 98° |
| 2026-05-09 13:19 | 39.04802 | -76.11541 | 24972 ft | 483 kts | 98° |
| 2026-05-09 13:19 | 39.04491 | -76.07232 | 24965 ft | 484 kts | 95° |
| 2026-05-09 13:19 | 39.04486 | -76.02905 | 24961 ft | 485 kts | 88° |
| 2026-05-09 13:19 | 39.04691 | -75.98575 | 24970 ft | 486 kts | 87° |
| 2026-05-09 13:20 | 39.04920 | -75.94241 | 24957 ft | 486 kts | 87° |
| 2026-05-09 13:20 | 39.05147 | -75.89902 | 24960 ft | 485 kts | 87° |
| 2026-05-09 13:20 | 39.05360 | -75.85637 | 24961 ft | 485 kts | 88° |
| 2026-05-09 13:20 | 39.05564 | -75.81302 | 24961 ft | 485 kts | 88° |
| 2026-05-09 13:21 | 39.05758 | -75.76969 | 24964 ft | 486 kts | 88° |
| 2026-05-09 13:21 | 39.05947 | -75.72634 | 24963 ft | 485 kts | 88° |
| 2026-05-09 13:21 | 39.06133 | -75.68300 | 24961 ft | 485 kts | 88° |
| 2026-05-09 13:21 | 39.06317 | -75.63968 | 24960 ft | 485 kts | 88° |
| 2026-05-09 13:22 | 39.06501 | -75.59628 | 24965 ft | 485 kts | 88° |
| 2026-05-09 13:22 | 39.06684 | -75.55291 | 24965 ft | 486 kts | 88° |
| 2026-05-09 13:22 | 39.06866 | -75.50951 | 24964 ft | 486 kts | 88° |
| 2026-05-09 13:23 | 39.07812 | -75.33687 | 24958 ft | 486 kts | 77° |
| 2026-05-09 13:23 | 39.08778 | -75.29517 | 24968 ft | 487 kts | 68° |
| 2026-05-09 13:24 | 39.10181 | -75.25559 | 24969 ft | 486 kts | 58° |
| 2026-05-09 13:24 | 39.12010 | -75.21912 | 24973 ft | 484 kts | 53° |
| 2026-05-09 13:24 | 39.13934 | -75.18360 | 24970 ft | 484 kts | 52° |
| 2026-05-09 13:24 | 39.15868 | -75.14802 | 24985 ft | 484 kts | 52° |
| 2026-05-09 13:25 | 39.17777 | -75.11239 | 24990 ft | 484 kts | 53° |
| 2026-05-09 13:25 | 39.19650 | -75.07692 | 24991 ft | 484 kts | 53° |
| 2026-05-09 13:25 | 39.23409 | -75.00478 | 24734 ft | 484 kts | 54° |
| 2026-05-09 13:26 | 39.25269 | -74.96900 | 24482 ft | 476 kts | 54° |
| 2026-05-09 13:26 | 39.27093 | -74.93391 | 24225 ft | 467 kts | 53° |
| 2026-05-09 13:26 | 39.28889 | -74.89942 | 23919 ft | 460 kts | 53° |
| 2026-05-09 13:26 | 39.30667 | -74.86527 | 23613 ft | 455 kts | 53° |
| 2026-05-09 13:27 | 39.32425 | -74.83148 | 23274 ft | 453 kts | 53° |
| 2026-05-09 13:27 | 39.33586 | -74.80915 | 23032 ft | 452 kts | 53° |
| 2026-05-09 13:27 | 39.35333 | -74.77549 | 22679 ft | 450 kts | 53° |
| 2026-05-09 13:27 | 39.37638 | -74.73098 | 22237 ft | 449 kts | 54° |
| 2026-05-09 13:28 | 39.39363 | -74.69750 | 21894 ft | 446 kts | 54° |
| 2026-05-09 13:28 | 39.41073 | -74.66420 | 21535 ft | 444 kts | 54° |
| 2026-05-09 13:28 | 39.42776 | -74.63105 | 21150 ft | 441 kts | 54° |
| 2026-05-09 13:28 | 39.43896 | -74.60924 | 20897 ft | 439 kts | 54° |
| 2026-05-09 13:29 | 39.45582 | -74.57639 | 20509 ft | 437 kts | 53° |
| 2026-05-09 13:29 | 39.47285 | -74.54405 | 20151 ft | 433 kts | 52° |
| 2026-05-09 13:29 | 39.49013 | -74.51219 | 19783 ft | 431 kts | 52° |
| 2026-05-09 13:29 | 39.50738 | -74.48064 | 19424 ft | 428 kts | 52° |
| 2026-05-09 13:30 | 39.52451 | -74.44925 | 19063 ft | 426 kts | 52° |
| 2026-05-09 13:30 | 39.54701 | -74.40782 | 18600 ft | 423 kts | 52° |
| 2026-05-09 13:30 | 39.55840 | -74.38678 | 18371 ft | 422 kts | 52° |
| 2026-05-09 13:30 | 39.57516 | -74.35571 | 17991 ft | 420 kts | 52° |
| 2026-05-09 13:31 | 39.59162 | -74.32515 | 17603 ft | 418 kts | 52° |
| 2026-05-09 13:31 | 39.60817 | -74.29438 | 17193 ft | 414 kts | 52° |
| 2026-05-09 13:31 | 39.62444 | -74.26409 | 17005 ft | 403 kts | 52° |
| 2026-05-09 13:31 | 39.64019 | -74.23477 | 16985 ft | 390 kts | 52° |
| 2026-05-09 13:32 | 39.65547 | -74.20628 | 16962 ft | 382 kts | 52° |
| 2026-05-09 13:32 | 39.68906 | -74.15338 | 16366 ft | 374 kts | 39° |
| 2026-05-09 13:32 | 39.70849 | -74.13128 | 16007 ft | 369 kts | 36° |
| 2026-05-09 13:33 | 39.72812 | -74.11006 | 15626 ft | 366 kts | 36° |
| 2026-05-09 13:33 | 39.74764 | -74.08903 | 15256 ft | 363 kts | 36° |
| 2026-05-09 13:33 | 39.76669 | -74.06834 | 14894 ft | 361 kts | 36° |
| 2026-05-09 13:33 | 39.78580 | -74.04741 | 14539 ft | 358 kts | 37° |
| 2026-05-09 13:34 | 39.80476 | -74.02654 | 14184 ft | 356 kts | 37° |
| 2026-05-09 13:34 | 39.82355 | -74.00578 | 13821 ft | 353 kts | 38° |
| 2026-05-09 13:34 | 39.84241 | -73.98621 | 13393 ft | 340 kts | 32° |
| 2026-05-09 13:34 | 39.86220 | -73.96978 | 12996 ft | 338 kts | 26° |
| 2026-05-09 13:35 | 39.88280 | -73.95519 | 12623 ft | 336 kts | 24° |
| 2026-05-09 13:35 | 39.90344 | -73.94107 | 12232 ft | 334 kts | 25° |
| 2026-05-09 13:35 | 39.92364 | -73.92717 | 11852 ft | 332 kts | 25° |
| 2026-05-09 13:35 | 39.94392 | -73.91303 | 11467 ft | 330 kts | 26° |
| 2026-05-09 13:36 | 39.96402 | -73.89885 | 11102 ft | 328 kts | 26° |
| 2026-05-09 13:36 | 39.98387 | -73.88476 | 11000 ft | 322 kts | 26° |
| 2026-05-09 13:36 | 40.00341 | -73.87087 | 10991 ft | 318 kts | 24° |
| 2026-05-09 13:36 | 40.02432 | -73.86605 | 11093 ft | 297 kts | 3° |
| 2026-05-09 13:37 | 40.04953 | -73.84756 | 10555 ft | 328 kts | 55° |
| 2026-05-09 13:37 | 40.05771 | -73.83268 | 11248 ft | 286 kts | 56° |
| 2026-05-09 13:37 | 40.06950 | -73.81058 | 11431 ft | 315 kts | 56° |
| 2026-05-09 13:37 | 40.08281 | -73.78673 | 11078 ft | 330 kts | 51° |
| 2026-05-09 13:38 | 40.09747 | -73.76358 | 10617 ft | 335 kts | 49° |
| 2026-05-09 13:38 | 40.11297 | -73.74163 | 10751 ft | 325 kts | 45° |
| 2026-05-09 13:38 | 40.12958 | -73.72152 | 10781 ft | 327 kts | 39° |
| 2026-05-09 13:38 | 40.14757 | -73.70428 | 10709 ft | 320 kts | 30° |
| 2026-05-09 13:39 | 40.16729 | -73.69065 | 10375 ft | 324 kts | 21° |
| 2026-05-09 13:39 | 40.18828 | -73.67933 | 9945 ft | 329 kts | 18° |
| 2026-05-09 13:39 | 40.21009 | -73.66916 | 9450 ft | 333 kts | 15° |
| 2026-05-09 13:39 | 40.23170 | -73.66137 | 9586 ft | 314 kts | 9° |
| 2026-05-09 13:40 | 40.25239 | -73.65275 | 9825 ft | 315 kts | 27° |
| 2026-05-09 13:40 | 40.26931 | -73.63449 | 10077 ft | 319 kts | 54° |
| 2026-05-09 13:40 | 40.27967 | -73.60900 | 10332 ft | 319 kts | 72° |
| 2026-05-09 13:40 | 40.28658 | -73.58137 | 10600 ft | 320 kts | 76° |
| 2026-05-09 13:41 | 40.29277 | -73.55335 | 10765 ft | 321 kts | 77° |
| 2026-05-09 13:41 | 40.29883 | -73.52510 | 10675 ft | 323 kts | 77° |
| 2026-05-09 13:41 | 40.30482 | -73.49707 | 10386 ft | 324 kts | 77° |
| 2026-05-09 13:41 | 40.31109 | -73.46886 | 10096 ft | 321 kts | 71° |
| 2026-05-09 13:42 | 40.32263 | -73.44391 | 9755 ft | 323 kts | 45° |
| 2026-05-09 13:42 | 40.34079 | -73.42719 | 9439 ft | 318 kts | 19° |
| 2026-05-09 13:42 | 40.36208 | -73.42155 | 9076 ft | 310 kts | 353° |
| 2026-05-09 13:42 | 40.38298 | -73.42596 | 8733 ft | 303 kts | 340° |
| 2026-05-09 13:43 | 40.40328 | -73.43348 | 8346 ft | 303 kts | 338° |
| 2026-05-09 13:43 | 40.42339 | -73.44160 | 7950 ft | 302 kts | 338° |
| 2026-05-09 13:43 | 40.44335 | -73.44977 | 7551 ft | 296 kts | 338° |
| 2026-05-09 13:43 | 40.46265 | -73.45765 | 7153 ft | 287 kts | 337° |
| 2026-05-09 13:44 | 40.48133 | -73.46557 | 6778 ft | 284 kts | 335° |
| 2026-05-09 13:44 | 40.49981 | -73.47432 | 6417 ft | 281 kts | 334° |
| 2026-05-09 13:44 | 40.51724 | -73.48518 | 6023 ft | 276 kts | 328° |
| 2026-05-09 13:44 | 40.53576 | -73.49220 | 5632 ft | 284 kts | 355° |
| 2026-05-09 13:45 | 40.55527 | -73.48741 | 5265 ft | 290 kts | 24° |
| 2026-05-09 13:45 | 40.57139 | -73.47172 | 4900 ft | 291 kts | 49° |
| 2026-05-09 13:45 | 40.58374 | -73.45072 | 4536 ft | 291 kts | 56° |
| 2026-05-09 13:45 | 40.59519 | -73.42886 | 4142 ft | 289 kts | 58° |
| 2026-05-09 13:46 | 40.60604 | -73.40674 | 4031 ft | 287 kts | 59° |
| 2026-05-09 13:46 | 40.61674 | -73.38490 | 4001 ft | 288 kts | 53° |
| 2026-05-09 13:46 | 40.63142 | -73.36816 | 3999 ft | 273 kts | 22° |
| 2026-05-09 13:46 | 40.64837 | -73.36058 | 3985 ft | 249 kts | 9° |
| 2026-05-09 13:47 | 40.66524 | -73.35548 | 4023 ft | 247 kts | 8° |
| 2026-05-09 13:47 | 40.68197 | -73.35074 | 4083 ft | 245 kts | 7° |
| 2026-05-09 13:47 | 40.69857 | -73.34606 | 4015 ft | 244 kts | 7° |
| 2026-05-09 13:47 | 40.71502 | -73.34140 | 4002 ft | 240 kts | 7° |
| 2026-05-09 13:48 | 40.73135 | -73.33748 | 3993 ft | 235 kts | 355° |
| 2026-05-09 13:48 | 40.74661 | -73.34237 | 4004 ft | 222 kts | 321° |
| 2026-05-09 13:48 | 40.75848 | -73.35502 | 3850 ft | 220 kts | 309° |
| 2026-05-09 13:48 | 40.76937 | -73.36901 | 3514 ft | 215 kts | 307° |
| 2026-05-09 13:49 | 40.77975 | -73.38263 | 3211 ft | 212 kts | 307° |
| 2026-05-09 13:49 | 40.79020 | -73.39640 | 2906 ft | 212 kts | 307° |
| 2026-05-09 13:49 | 40.79895 | -73.41149 | 2576 ft | 202 kts | 283° |
| 2026-05-09 13:49 | 40.80092 | -73.42907 | 2297 ft | 190 kts | 268° |
| 2026-05-09 13:50 | 40.80132 | -73.44644 | 2100 ft | 187 kts | 268° |
| 2026-05-09 13:50 | 40.80172 | -73.46343 | 2037 ft | 184 kts | 267° |
| 2026-05-09 13:50 | 40.80210 | -73.48024 | 2030 ft | 184 kts | 267° |
| 2026-05-09 13:50 | 40.80254 | -73.49727 | 2012 ft | 186 kts | 267° |
| 2026-05-09 13:51 | 40.80296 | -73.51436 | 2017 ft | 186 kts | 267° |
| 2026-05-09 13:51 | 40.80339 | -73.53152 | 1996 ft | 187 kts | 267° |
| 2026-05-09 13:51 | 40.80385 | -73.54829 | 2001 ft | 183 kts | 268° |
| 2026-05-09 13:51 | 40.80424 | -73.56503 | 1988 ft | 181 kts | 267° |
| 2026-05-09 13:52 | 40.80467 | -73.58164 | 1996 ft | 181 kts | 267° |
| 2026-05-09 13:52 | 40.80512 | -73.59817 | 1993 ft | 182 kts | 267° |
| 2026-05-09 13:52 | 40.80555 | -73.61503 | 2012 ft | 184 kts | 267° |
| 2026-05-09 13:52 | 40.80322 | -73.63100 | 1989 ft | 176 kts | 236° |
| 2026-05-09 13:53 | 40.79365 | -73.64075 | 2022 ft | 179 kts | 206° |
| 2026-05-09 13:53 | 40.78232 | -73.64775 | 1996 ft | 178 kts | 210° |
| 2026-05-09 13:53 | 40.77158 | -73.65575 | 2004 ft | 178 kts | 213° |
| 2026-05-09 13:53 | 40.76090 | -73.66408 | 2002 ft | 178 kts | 213° |
| 2026-05-09 13:54 | 40.75018 | -73.67248 | 2017 ft | 180 kts | 213° |
| 2026-05-09 13:54 | 40.73946 | -73.68091 | 2015 ft | 182 kts | 213° |
| 2026-05-09 13:54 | 40.72863 | -73.68943 | 1982 ft | 181 kts | 213° |
| 2026-05-09 13:54 | 40.71774 | -73.69799 | 1724 ft | 181 kts | 212° |
| 2026-05-09 13:55 | 40.70707 | -73.70637 | 1482 ft | 174 kts | 212° |
| 2026-05-09 13:55 | 40.69707 | -73.71420 | 1227 ft | 159 kts | 212° |
| 2026-05-09 13:55 | 40.68755 | -73.72168 | 1041 ft | 159 kts | 212° |
| 2026-05-09 13:55 | 40.67841 | -73.72888 | 830 ft | 151 kts | 210° |
| 2026-05-09 13:56 | 40.66942 | -73.73593 | 628 ft | 148 kts | 209° |
| 2026-05-09 13:56 | 40.66052 | -73.74281 | 408 ft | 147 kts | 208° |
| 2026-05-09 13:56 | 40.65170 | -73.74985 | 300 ft | 147 kts | 208° |
| 2026-05-09 13:56 | 40.64275 | -73.75672 | 42 ft | 151 kts | 209° |
| 2026-05-09 13:57 | 40.63472 | -73.76308 | 27 ft | 90 kts | 211° |
| 2026-05-09 13:57 | 40.63313 | -73.76463 | 30 ft | 17 kts | 240° |
| 2026-05-09 13:57 | 40.63253 | -73.76607 | 27 ft | 10 kts | 243° |
| 2026-05-09 13:57 | 40.63240 | -73.76689 | 28 ft | 9 kts | 278° |
| 2026-05-09 13:58 | 40.63261 | -73.76762 | 29 ft | 7 kts | 298° |
| 2026-05-09 13:58 | 40.63281 | -73.76810 | 28 ft | 6 kts | 298° |
| 2026-05-09 13:58 | 40.63300 | -73.76854 | 29 ft | 5 kts | 302° |
| 2026-05-09 13:58 | 40.63323 | -73.76892 | 28 ft | 9 kts | 315° |
| 2026-05-09 13:59 | 40.63461 | -73.76925 | 27 ft | 25 kts | 5° |
| 2026-05-09 13:59 | 40.63636 | -73.76917 | 28 ft | 25 kts | 1° |
| 2026-05-09 13:59 | 40.63812 | -73.76914 | 25 ft | 25 kts | 1° |
| 2026-05-09 13:59 | 40.63989 | -73.76911 | 28 ft | 25 kts | 1° |
| 2026-05-09 14:00 | 40.64127 | -73.76895 | 29 ft | 0 kts | 6° |
| 2026-05-09 14:00 | 40.64141 | -73.76893 | 27 ft | 12 kts | 6° |
| 2026-05-09 14:00 | 40.64226 | -73.76887 | 28 ft | 9 kts | 2° |
| 2026-05-09 14:01 | 40.64323 | -73.76913 | 29 ft | 18 kts | 340° |
| 2026-05-09 14:01 | 40.64430 | -73.76972 | 28 ft | 15 kts | 342° |
| 2026-05-09 14:01 | 40.64502 | -73.76975 | 27 ft | 10 kts | 13° |
| 2026-05-09 14:01 | 40.64612 | -73.76984 | 27 ft | 18 kts | 353° |
| 2026-05-09 14:02 | 40.64726 | -73.77036 | 28 ft | 18 kts | 326° |
| 2026-05-09 14:02 | 40.64803 | -73.77159 | 31 ft | 18 kts | 297° |
| 2026-05-09 14:02 | 40.64865 | -73.77298 | 28 ft | 18 kts | 301° |
| 2026-05-09 14:02 | 40.64921 | -73.77420 | 30 ft | 10 kts | 301° |
| 2026-05-09 14:03 | 40.64940 | -73.77457 | 26 ft | 4 kts | 321° |
| 2026-05-09 14:03 | 40.64975 | -73.77454 | 29 ft | 9 kts | 17° |
| 2026-05-09 14:03 | 40.65107 | -73.77382 | 28 ft | 19 kts | 26° |
| 2026-05-09 14:03 | 40.65197 | -73.77462 | 26 ft | 29 kts | 302° |
| 2026-05-09 14:04 | 40.65324 | -73.77742 | 29 ft | 37 kts | 301° |
| 2026-05-09 14:04 | 40.65451 | -73.78023 | 30 ft | 35 kts | 301° |
| 2026-05-09 14:04 | 40.65571 | -73.78289 | 29 ft | 33 kts | 301° |
| 2026-05-09 14:04 | 40.65687 | -73.78544 | 30 ft | 32 kts | 301° |
| 2026-05-09 14:05 | 40.65778 | -73.78720 | 28 ft | 12 kts | 334° |
| 2026-05-09 14:05 | 40.65846 | -73.78694 | 28 ft | 10 kts | 25° |
| 2026-05-09 14:05 | 40.65909 | -73.78649 | 29 ft | 10 kts | 31° |
| 2026-05-09 14:05 | 40.65970 | -73.78603 | 29 ft | 10 kts | 29° |
| 2026-05-09 14:06 | 40.66036 | -73.78574 | 29 ft | 10 kts | 353° |
| 2026-05-09 14:06 | 40.66105 | -73.78556 | 28 ft | 10 kts | 27° |
| 2026-05-09 14:06 | 40.66122 | -73.78543 | 30 ft | 0 kts | 29° |